Time;durP1;ratioP1;P1;durP2;ratioP2;P2;SDS_P1;SDS_P2;PMS_P1;PMS_P2;Temp;Humidity;BMP_temperature;BMP_pressure;BME280_temperature;BME280_humidity;BME280_pressure;Samples;Min_cycle;Max_cycle;Signal;HPM_P1;HPM_P2
2022/04/30 00:02:21;;;;;;;11.47;10.47;;;;;;;;;;5075255;28;21058;-68
2022/04/30 00:04:48;;;;;;;11.03;9.90;;;;;;;;;;5075299;28;20757;-68
2022/04/30 00:07:18;;;;;;;10.83;9.90;;;;;;;;;;5075292;28;20406;-68
2022/04/30 00:09:44;;;;;;;10.33;9.43;;;;;;;;;;5075557;28;20434;-68
2022/04/30 00:12:10;;;;;;;11.50;9.93;;;;;;;;;;5075319;28;20441;-68
2022/04/30 00:14:37;;;;;;;10.10;9.40;;;;;;;;;;5075130;28;20406;-67
2022/04/30 00:17:03;;;;;;;10.27;9.47;;;;;;;;;;5074981;28;20414;-67
2022/04/30 00:19:30;;;;;;;10.63;9.93;;;;;;;;;;5074230;28;20896;-68
2022/04/30 00:21:56;;;;;;;10.20;9.50;;;;;;;;;;5075221;28;20450;-68
2022/04/30 00:24:22;;;;;;;11.40;10.50;;;;;;;;;;5073769;28;20789;-68
2022/04/30 00:26:49;;;;;;;9.30;8.80;;;;;;;;;;5075222;28;20784;-68
2022/04/30 00:29:15;;;;;;;10.57;9.70;;;;;;;;;;5075034;28;20971;-68
2022/04/30 00:31:41;;;;;;;10.97;10.07;;;;;;;;;;5074742;28;20406;-68
2022/04/30 00:34:07;;;;;;;10.90;10.00;;;;;;;;;;5074862;28;20440;-68
2022/04/30 00:36:33;;;;;;;9.93;9.33;;;;;;;;;;5074832;28;20409;-68
2022/04/30 00:39:00;;;;;;;11.20;10.30;;;;;;;;;;5074465;28;20465;-68
2022/04/30 00:41:26;;;;;;;11.60;10.43;;;;;;;;;;5074481;28;20413;-68
2022/04/30 00:43:53;;;;;;;10.93;10.03;;;;;;;;;;5074624;28;20414;-68
2022/04/30 00:46:20;;;;;;;11.87;10.80;;;;;;;;;;5074570;28;20421;-68
2022/04/30 00:48:46;;;;;;;10.87;10.00;;;;;;;;;;5074707;28;20485;-67
2022/04/30 00:51:13;;;;;;;12.43;11.53;;;;;;;;;;5074451;28;20461;-68
2022/04/30 00:53:40;;;;;;;11.27;10.37;;;;;;;;;;5074540;28;20422;-68
2022/04/30 00:56:07;;;;;;;16.77;11.87;;;;;;;;;;5074317;28;20417;-68
2022/04/30 00:58:34;;;;;;;13.00;11.80;;;;;;;;;;5074364;28;20410;-68
2022/04/30 01:01:02;;;;;;;11.33;10.43;;;;;;;;;;5072774;28;20430;-68
2022/04/30 01:03:29;;;;;;;12.70;11.80;;;;;;;;;;5074099;28;20524;-68
2022/04/30 01:05:55;;;;;;;12.33;11.43;;;;;;;;;;5073014;28;20524;-68
2022/04/30 01:08:22;;;;;;;11.83;10.73;;;;;;;;;;5074206;28;20402;-68
2022/04/30 01:10:48;;;;;;;12.40;11.30;;;;;;;;;;5074156;28;20877;-68
2022/04/30 01:13:14;;;;;;;13.40;12.30;;;;;;;;;;5073785;28;20428;-68
2022/04/30 01:15:41;;;;;;;12.83;11.83;;;;;;;;;;5074064;28;20534;-68
2022/04/30 01:18:12;;;;;;;12.70;11.50;;;;;;;;;;5074499;28;20492;-68
2022/04/30 01:20:42;;;;;;;12.33;11.37;;;;;;;;;;5074002;28;20402;-68
2022/04/30 01:23:08;;;;;;;12.83;11.53;;;;;;;;;;5073824;28;20466;-68
2022/04/30 01:25:35;;;;;;;16.10;12.10;;;;;;;;;;5073804;28;20931;-68
2022/04/30 01:28:02;;;;;;;13.53;11.97;;;;;;;;;;5073799;28;20897;-67
2022/04/30 01:30:28;;;;;;;13.63;12.30;;;;;;;;;;5073579;28;20988;-68
2022/04/30 01:38:24;;;;;;;11.97;11.07;;;;;;;;;;5073247;28;20409;-68
2022/04/30 01:40:50;;;;;;;12.47;11.20;;;;;;;;;;5073778;28;20408;-68
2022/04/30 01:43:17;;;;;;;11.63;10.60;;;;;;;;;;5073528;28;20469;-67
2022/04/30 01:45:46;;;;;;;13.87;11.23;;;;;;;;;;5073630;28;20468;-67
2022/04/30 01:48:14;;;;;;;11.93;11.17;;;;;;;;;;5072836;28;20418;-68
2022/04/30 01:50:41;;;;;;;11.90;11.00;;;;;;;;;;5073466;28;20402;-68
2022/04/30 01:53:07;;;;;;;12.40;11.30;;;;;;;;;;5073546;28;20430;-67
2022/04/30 01:55:33;;;;;;;13.17;12.07;;;;;;;;;;5073209;28;20416;-67
2022/04/30 01:57:59;;;;;;;16.23;12.47;;;;;;;;;;5073309;28;20889;-68
2022/04/30 02:00:26;;;;;;;13.07;11.97;;;;;;;;;;5073262;28;20401;-67
2022/04/30 02:02:53;;;;;;;13.80;12.57;;;;;;;;;;5073490;28;20552;-67
2022/04/30 02:05:20;;;;;;;13.60;12.50;;;;;;;;;;5073359;28;20448;-68
2022/04/30 02:08:06;;;;;;;13.90;12.70;;;;;;;;;;5073339;28;20921;-68
2022/04/30 02:10:34;;;;;;;13.77;12.77;;;;;;;;;;5073494;28;20406;-68
2022/04/30 02:13:01;;;;;;;16.43;12.93;;;;;;;;;;5072933;28;20398;-68
2022/04/30 02:15:27;;;;;;;14.33;13.20;;;;;;;;;;5072983;28;20413;-67
2022/04/30 02:17:53;;;;;;;14.93;13.57;;;;;;;;;;5073395;28;20836;-67
2022/04/30 02:20:27;;;;;;;14.40;13.03;;;;;;;;;;5073438;28;20424;-67
2022/04/30 02:22:55;;;;;;;15.00;13.80;;;;;;;;;;5072958;28;20473;-67
2022/04/30 02:25:21;;;;;;;15.17;13.90;;;;;;;;;;5071689;28;20801;-67
2022/04/30 02:27:48;;;;;;;16.00;14.60;;;;;;;;;;5073099;28;20410;-68
2022/04/30 02:30:17;;;;;;;14.80;13.60;;;;;;;;;;5073074;28;20900;-67
2022/04/30 02:32:54;;;;;;;15.40;14.20;;;;;;;;;;5073405;28;20421;-68
2022/04/30 02:35:21;;;;;;;16.50;15.00;;;;;;;;;;5073011;28;20406;-68
2022/04/30 02:37:49;;;;;;;16.73;15.00;;;;;;;;;;5072990;28;20414;-68
2022/04/30 02:40:18;;;;;;;16.13;14.73;;;;;;;;;;5072930;28;20473;-68
2022/04/30 02:42:44;;;;;;;15.93;14.63;;;;;;;;;;5074221;28;21052;-67
2022/04/30 02:45:11;;;;;;;16.20;14.90;;;;;;;;;;5077125;28;20760;-68
2022/04/30 02:47:38;;;;;;;21.83;16.60;;;;;;;;;;5077004;28;20815;-68
2022/04/30 02:50:05;;;;;;;16.60;15.07;;;;;;;;;;5076728;28;20793;-67
2022/04/30 02:52:31;;;;;;;16.13;14.83;;;;;;;;;;5076924;28;20470;-67
2022/04/30 02:54:57;;;;;;;16.60;15.10;;;;;;;;;;5076821;28;20957;-68
2022/04/30 02:57:22;;;;;;;17.90;16.40;;;;;;;;;;5076780;28;20885;-67
2022/04/30 02:59:55;;;;;;;19.17;17.10;;;;;;;;;;5076582;28;20405;-68
2022/04/30 03:02:22;;;;;;;18.90;17.10;;;;;;;;;;5076560;28;20473;-68
2022/04/30 03:04:51;;;;;;;18.20;16.40;;;;;;;;;;5076559;28;20406;-67
2022/04/30 03:07:18;;;;;;;18.67;16.77;;;;;;;;;;5076873;28;20517;-67
2022/04/30 03:09:44;;;;;;;18.60;16.83;;;;;;;;;;5076539;28;20413;-68
2022/04/30 03:12:10;;;;;;;17.67;16.07;;;;;;;;;;5076364;28;20406;-67
2022/04/30 03:14:36;;;;;;;19.67;16.53;;;;;;;;;;5076387;28;20414;-67
2022/04/30 03:22:33;;;;;;;18.37;16.57;;;;;;;;;;5076345;28;21026;-68
2022/04/30 03:24:59;;;;;;;16.90;15.50;;;;;;;;;;5076317;28;20407;-68
2022/04/30 03:27:25;;;;;;;19.77;17.70;;;;;;;;;;5076127;28;20406;-67
2022/04/30 03:29:51;;;;;;;21.37;19.53;;;;;;;;;;5076077;28;20402;-67
2022/04/30 03:32:19;;;;;;;20.37;18.47;;;;;;;;;;5075922;28;20966;-67
2022/04/30 03:34:45;;;;;;;19.20;17.30;;;;;;;;;;5076062;28;20402;-67
2022/04/30 03:37:11;;;;;;;20.00;18.00;;;;;;;;;;5075992;28;20390;-67
2022/04/30 03:39:37;;;;;;;18.67;17.10;;;;;;;;;;5075931;28;20518;-67
2022/04/30 03:42:05;;;;;;;18.63;17.03;;;;;;;;;;5075918;28;20465;-67
2022/04/30 03:44:31;;;;;;;16.70;15.30;;;;;;;;;;5076097;28;20418;-67
2022/04/30 03:46:57;;;;;;;17.57;16.03;;;;;;;;;;5074264;28;20406;-68
2022/04/30 03:49:23;;;;;;;19.33;17.40;;;;;;;;;;5075759;28;20763;-67
2022/04/30 03:51:49;;;;;;;17.10;15.70;;;;;;;;;;5075723;28;20460;-67
2022/04/30 03:54:15;;;;;;;18.17;16.50;;;;;;;;;;5074658;28;20438;-67
2022/04/30 03:56:41;;;;;;;18.37;16.57;;;;;;;;;;5075566;28;20493;-67
2022/04/30 03:59:08;;;;;;;18.47;16.77;;;;;;;;;;5075664;28;20410;-67
2022/04/30 04:01:35;;;;;;;18.83;17.13;;;;;;;;;;5075375;28;20504;-68
2022/04/30 04:04:01;;;;;;;17.67;15.97;;;;;;;;;;5075641;28;20418;-67
2022/04/30 04:06:28;;;;;;;18.47;16.97;;;;;;;;;;5075539;28;20791;-68
2022/04/30 04:08:54;;;;;;;18.57;16.87;;;;;;;;;;5075263;28;20746;-67
2022/04/30 04:11:22;;;;;;;17.33;15.83;;;;;;;;;;5075345;28;20459;-67
2022/04/30 04:19:20;;;;;;;18.23;16.73;;;;;;;;;;5075255;28;20498;-67
2022/04/30 04:21:46;;;;;;;18.57;16.93;;;;;;;;;;5075150;28;20398;-67
2022/04/30 04:26:56;;;;;;;19.43;17.63;;;;;;;;;;5075265;28;20433;-67
2022/04/30 04:29:22;;;;;;;20.30;18.20;;;;;;;;;;5075006;28;20433;-67
2022/04/30 04:31:48;;;;;;;21.00;17.90;;;;;;;;;;5074984;28;20422;-67
2022/04/30 04:34:14;;;;;;;21.80;19.70;;;;;;;;;;5074661;28;20968;-68
2022/04/30 04:36:40;;;;;;;19.90;18.20;;;;;;;;;;5074881;28;20421;-67
2022/04/30 04:39:13;;;;;;;19.90;17.80;;;;;;;;;;5074631;28;20828;-68
2022/04/30 04:41:40;;;;;;;18.37;16.77;;;;;;;;;;5074522;28;20406;-68
2022/04/30 04:44:06;;;;;;;17.80;16.03;;;;;;;;;;5073507;28;20442;-67
2022/04/30 04:46:32;;;;;;;17.90;16.40;;;;;;;;;;5074422;28;20769;-67
2022/04/30 04:48:59;;;;;;;18.43;16.80;;;;;;;;;;5073253;28;20501;-67
2022/04/30 04:51:25;;;;;;;21.10;17.03;;;;;;;;;;5074657;28;20409;-67
2022/04/30 04:53:51;;;;;;;17.37;15.70;;;;;;;;;;5074260;28;20405;-67
2022/04/30 04:56:17;;;;;;;20.23;17.47;;;;;;;;;;5074223;28;20435;-67
2022/04/30 04:58:42;;;;;;;20.83;18.70;;;;;;;;;;5074469;28;20441;-67
2022/04/30 05:01:09;;;;;;;19.80;18.03;;;;;;;;;;5074339;28;20420;-67
2022/04/30 05:03:34;;;;;;;19.37;17.63;;;;;;;;;;5074434;28;20469;-67
2022/04/30 05:06:00;;;;;;;18.93;17.13;;;;;;;;;;5073848;28;20501;-67
2022/04/30 05:08:26;;;;;;;20.20;17.50;;;;;;;;;;5074091;28;20456;-67
2022/04/30 05:10:52;;;;;;;20.57;18.70;;;;;;;;;;5074354;28;20778;-67
2022/04/30 05:13:18;;;;;;;20.10;18.20;;;;;;;;;;5073887;28;20441;-67
2022/04/30 05:15:45;;;;;;;18.03;16.50;;;;;;;;;;5074031;28;20924;-67
2022/04/30 05:18:11;;;;;;;20.20;17.40;;;;;;;;;;5074442;28;20420;-67
2022/04/30 05:20:38;;;;;;;19.37;17.60;;;;;;;;;;5074065;28;20896;-67
2022/04/30 05:23:04;;;;;;;19.50;17.80;;;;;;;;;;5074108;28;20474;-67
2022/04/30 05:25:30;;;;;;;21.90;19.60;;;;;;;;;;5073726;28;20405;-66
2022/04/30 05:27:56;;;;;;;20.63;18.80;;;;;;;;;;5073801;28;20413;-68
2022/04/30 05:30:22;;;;;;;23.20;20.70;;;;;;;;;;5073462;28;20883;-68
2022/04/30 05:32:48;;;;;;;23.77;21.07;;;;;;;;;;5072666;28;20422;-68
2022/04/30 05:35:14;;;;;;;24.17;21.77;;;;;;;;;;5073537;28;20402;-68
2022/04/30 05:37:40;;;;;;;28.17;22.43;;;;;;;;;;5073624;28;20923;-67
2022/04/30 05:40:07;;;;;;;22.77;20.73;;;;;;;;;;5073505;28;20474;-68
2022/04/30 05:42:33;;;;;;;24.00;21.57;;;;;;;;;;5073639;28;20461;-67
2022/04/30 05:44:59;;;;;;;23.87;21.57;;;;;;;;;;5073759;28;20444;-67
2022/04/30 05:47:26;;;;;;;25.33;22.80;;;;;;;;;;5073904;28;20535;-67
2022/04/30 05:49:52;;;;;;;25.10;22.60;;;;;;;;;;5073640;28;20766;-67
2022/04/30 05:52:21;;;;;;;25.60;20.83;;;;;;;;;;5073699;28;20406;-66
2022/04/30 05:54:47;;;;;;;21.57;19.50;;;;;;;;;;5073600;28;20823;-66
2022/04/30 05:57:13;;;;;;;25.90;23.10;;;;;;;;;;5073541;28;20915;-66
2022/04/30 05:59:39;;;;;;;22.63;20.43;;;;;;;;;;5073810;28;20488;-65
2022/04/30 06:02:05;;;;;;;23.03;20.90;;;;;;;;;;5073651;28;20574;-65
2022/04/30 06:04:31;;;;;;;22.20;20.00;;;;;;;;;;5073578;28;20410;-67
2022/04/30 06:06:58;;;;;;;48.20;38.37;;;;;;;;;;5073471;28;20489;-66
2022/04/30 06:09:24;;;;;;;54.83;45.43;;;;;;;;;;5073465;28;20816;-66
2022/04/30 06:11:50;;;;;;;27.43;24.77;;;;;;;;;;5073487;28;20405;-66
2022/04/30 06:14:17;;;;;;;24.50;22.00;;;;;;;;;;5073355;28;20422;-68
2022/04/30 06:16:43;;;;;;;24.20;21.70;;;;;;;;;;5072751;28;20501;-66
2022/04/30 06:19:09;;;;;;;22.73;20.70;;;;;;;;;;5073124;28;20893;-66
2022/04/30 06:21:35;;;;;;;21.50;19.40;;;;;;;;;;5071995;28;20544;-66
2022/04/30 06:24:01;;;;;;;21.77;19.73;;;;;;;;;;5073216;28;20473;-66
2022/04/30 06:26:27;;;;;;;23.67;21.23;;;;;;;;;;5073188;28;20409;-64
2022/04/30 06:28:53;;;;;;;21.70;19.70;;;;;;;;;;5073273;28;20492;-65
2022/04/30 06:31:19;;;;;;;24.47;22.17;;;;;;;;;;5073208;28;20440;-65
2022/04/30 06:33:45;;;;;;;23.93;21.73;;;;;;;;;;5073173;28;20740;-65
2022/04/30 06:36:11;;;;;;;22.20;20.30;;;;;;;;;;5073430;28;20475;-66
2022/04/30 06:38:37;;;;;;;23.90;21.60;;;;;;;;;;5072911;28;20866;-66
2022/04/30 06:41:03;;;;;;;25.97;23.30;;;;;;;;;;5073242;28;20460;-64
2022/04/30 06:43:29;;;;;;;23.43;21.13;;;;;;;;;;5073064;28;20494;-64
2022/04/30 06:45:55;;;;;;;27.13;23.90;;;;;;;;;;5073074;28;20493;-65
2022/04/30 06:48:21;;;;;;;28.57;25.73;;;;;;;;;;5073196;28;20892;-63
2022/04/30 06:50:48;;;;;;;27.20;24.40;;;;;;;;;;5073035;28;20433;-65
2022/04/30 06:58:53;;;;;;;28.00;24.33;;;;;;;;;;5073029;28;20405;-63
2022/04/30 07:03:48;;;;;;;27.83;25.00;;;;;;;;;;5073173;28;20964;-64
2022/04/30 07:06:15;;;;;;;28.90;25.27;;;;;;;;;;5072963;28;20448;-63
2022/04/30 07:08:41;;;;;;;28.30;25.40;;;;;;;;;;5072869;28;20881;-63
2022/04/30 07:11:08;;;;;;;31.60;25.10;;;;;;;;;;5073057;28;20489;-64
2022/04/30 07:13:34;;;;;;;28.60;25.50;;;;;;;;;;5072818;28;20398;-64
2022/04/30 07:16:00;;;;;;;29.20;24.47;;;;;;;;;;5073008;28;20471;-63
2022/04/30 07:18:26;;;;;;;34.77;26.53;;;;;;;;;;5072732;28;20770;-64
2022/04/30 07:20:53;;;;;;;33.13;27.17;;;;;;;;;;5072753;28;20501;-64
2022/04/30 07:23:20;;;;;;;30.53;26.30;;;;;;;;;;5071722;28;20468;-64
2022/04/30 07:25:46;;;;;;;28.07;25.27;;;;;;;;;;5072697;28;20398;-63
2022/04/30 07:28:11;;;;;;;32.30;26.53;;;;;;;;;;5073200;28;20850;-63
2022/04/30 07:30:37;;;;;;;26.83;24.20;;;;;;;;;;5076224;28;20436;-64
2022/04/30 07:33:03;;;;;;;27.63;24.63;;;;;;;;;;5076287;28;20406;-65
2022/04/30 07:35:29;;;;;;;29.90;25.87;;;;;;;;;;5076403;28;20449;-66
2022/04/30 07:37:55;;;;;;;46.33;40.57;;;;;;;;;;5076024;28;20736;-65
2022/04/30 07:40:21;;;;;;;29.30;26.20;;;;;;;;;;5074554;28;20477;-64
2022/04/30 07:42:47;;;;;;;34.30;28.27;;;;;;;;;;5075792;28;20523;-65
2022/04/30 07:45:13;;;;;;;36.80;28.20;;;;;;;;;;5075837;28;20437;-65
2022/04/30 07:47:39;;;;;;;34.83;28.90;;;;;;;;;;5075740;28;20418;-66
2022/04/30 07:50:05;;;;;;;31.07;27.60;;;;;;;;;;5075806;28;20405;-64
2022/04/30 07:52:32;;;;;;;34.47;30.47;;;;;;;;;;5075622;28;20464;-66
2022/04/30 07:54:58;;;;;;;34.83;29.70;;;;;;;;;;5075544;28;20408;-68
2022/04/30 07:57:25;;;;;;;36.70;30.97;;;;;;;;;;5075784;28;20414;-67
2022/04/30 07:59:51;;;;;;;40.90;32.23;;;;;;;;;;5075543;28;20398;-66
2022/04/30 08:02:17;;;;;;;37.77;30.70;;;;;;;;;;5075449;28;20819;-67
2022/04/30 08:04:43;;;;;;;37.40;31.67;;;;;;;;;;5074233;28;20474;-64
2022/04/30 08:07:09;;;;;;;38.57;30.63;;;;;;;;;;5075414;28;20426;-67
2022/04/30 08:09:35;;;;;;;38.13;31.73;;;;;;;;;;5075344;28;20925;-64
2022/04/30 08:12:01;;;;;;;40.03;33.40;;;;;;;;;;5075364;28;20747;-63
2022/04/30 08:14:27;;;;;;;40.73;33.40;;;;;;;;;;5075354;28;20394;-65
2022/04/30 08:16:54;;;;;;;40.63;31.83;;;;;;;;;;5075448;28;20479;-64
2022/04/30 08:19:20;;;;;;;37.57;32.30;;;;;;;;;;5075233;28;20881;-65
2022/04/30 08:21:48;;;;;;;40.90;33.63;;;;;;;;;;5075064;28;20410;-65
2022/04/30 08:24:14;;;;;;;36.87;32.47;;;;;;;;;;5075166;28;20425;-66
2022/04/30 08:26:40;;;;;;;38.07;31.40;;;;;;;;;;5075192;28;20406;-65
2022/04/30 08:29:06;;;;;;;48.07;31.00;;;;;;;;;;5075051;28;20780;-64
2022/04/30 08:31:33;;;;;;;35.33;30.60;;;;;;;;;;5075155;28;20426;-66
2022/04/30 08:33:59;;;;;;;32.40;27.67;;;;;;;;;;5074986;28;20412;-65
2022/04/30 08:36:25;;;;;;;31.13;27.73;;;;;;;;;;5074822;28;20473;-65
2022/04/30 08:38:51;;;;;;;52.13;26.30;;;;;;;;;;5074661;28;20477;-64
2022/04/30 08:41:17;;;;;;;34.13;26.77;;;;;;;;;;5073065;28;20439;-65
2022/04/30 08:43:46;;;;;;;34.53;28.23;;;;;;;;;;5074567;28;20467;-63
2022/04/30 08:46:12;;;;;;;41.30;27.43;;;;;;;;;;5074538;28;20895;-65
2022/04/30 08:48:39;;;;;;;31.03;25.70;;;;;;;;;;5074650;28;20430;-65
2022/04/30 08:51:05;;;;;;;29.20;25.70;;;;;;;;;;5074608;28;20544;-65
2022/04/30 08:53:31;;;;;;;29.73;25.73;;;;;;;;;;5074591;28;20448;-66
2022/04/30 08:55:57;;;;;;;32.50;26.47;;;;;;;;;;5074318;28;20412;-65
2022/04/30 08:58:23;;;;;;;27.93;23.80;;;;;;;;;;5074736;28;20411;-66
2022/04/30 09:00:49;;;;;;;27.20;23.20;;;;;;;;;;5074366;28;20465;-66
2022/04/30 09:03:16;;;;;;;26.80;24.00;;;;;;;;;;5074148;28;20463;-67
2022/04/30 09:05:42;;;;;;;25.50;22.87;;;;;;;;;;5074347;28;20409;-64
2022/04/30 09:08:09;;;;;;;29.50;25.00;;;;;;;;;;5074297;28;20458;-64
2022/04/30 09:10:37;;;;;;;28.50;24.00;;;;;;;;;;5074194;28;20404;-65
2022/04/30 09:13:06;;;;;;;30.90;24.80;;;;;;;;;;5074153;28;20504;-64
2022/04/30 09:15:33;;;;;;;27.90;23.60;;;;;;;;;;5072783;28;20511;-64
2022/04/30 09:17:59;;;;;;;26.03;23.20;;;;;;;;;;5074046;28;20939;-64
2022/04/30 09:20:26;;;;;;;29.43;23.47;;;;;;;;;;5074292;28;20453;-65
2022/04/30 09:22:52;;;;;;;28.60;23.10;;;;;;;;;;5073908;28;20465;-64
2022/04/30 09:25:18;;;;;;;28.90;23.07;;;;;;;;;;5073935;28;20412;-64
2022/04/30 09:27:50;;;;;;;27.43;23.23;;;;;;;;;;5073875;28;20407;-65
2022/04/30 09:30:22;;;;;;;31.03;22.80;;;;;;;;;;5073839;28;20475;-65
2022/04/30 09:33:07;;;;;;;22.90;20.63;;;;;;;;;;5073630;28;20445;-65
2022/04/30 09:38:18;;;;;;;22.60;20.30;;;;;;;;;;5073626;28;20405;-64
2022/04/30 09:40:57;;;;;;;27.60;20.70;;;;;;;;;;5072491;28;20480;-65
2022/04/30 09:43:30;;;;;;;24.13;21.37;;;;;;;;;;5073775;28;20473;-66
2022/04/30 09:46:00;;;;;;;24.53;21.47;;;;;;;;;;5073711;28;20459;-65
2022/04/30 09:54:00;;;;;;;22.33;19.93;;;;;;;;;;5073683;28;20429;-65
2022/04/30 09:56:39;;;;;;;20.67;18.20;;;;;;;;;;5073386;28;20402;-67
2022/04/30 09:59:10;;;;;;;29.70;21.47;;;;;;;;;;5073391;28;20404;-64
2022/04/30 10:01:37;;;;;;;19.57;17.57;;;;;;;;;;5073503;28;20414;-65
2022/04/30 10:04:13;;;;;;;19.77;17.80;;;;;;;;;;5073459;28;20476;-65
2022/04/30 10:06:49;;;;;;;20.50;18.50;;;;;;;;;;5073325;28;20793;-64
2022/04/30 10:09:22;;;;;;;19.73;17.80;;;;;;;;;;5073276;28;20397;-64
2022/04/30 10:12:00;;;;;;;18.10;16.30;;;;;;;;;;5073170;28;20398;-64
2022/04/30 10:14:31;;;;;;;17.57;15.83;;;;;;;;;;5073243;28;20401;-64
2022/04/30 10:17:16;;;;;;;17.23;15.30;;;;;;;;;;5073392;28;20419;-66
2022/04/30 10:19:42;;;;;;;15.87;14.40;;;;;;;;;;5073118;28;20544;-65
2022/04/30 10:22:17;;;;;;;18.40;15.80;;;;;;;;;;5072959;28;20412;-64
2022/04/30 10:24:50;;;;;;;20.63;17.17;;;;;;;;;;5073081;28;20901;-65
2022/04/30 10:27:17;;;;;;;18.90;16.80;;;;;;;;;;5073017;28;20536;-65
2022/04/30 10:29:53;;;;;;;18.90;16.00;;;;;;;;;;5073252;28;20415;-65
2022/04/30 10:32:25;;;;;;;18.47;16.57;;;;;;;;;;5073523;28;20417;-64
2022/04/30 10:34:55;;;;;;;17.90;16.27;;;;;;;;;;5073236;28;20407;-63
2022/04/30 10:37:28;;;;;;;17.83;16.03;;;;;;;;;;5073120;28;20415;-64
2022/04/30 10:39:58;;;;;;;18.03;16.30;;;;;;;;;;5072414;28;20587;-65
2022/04/30 10:42:31;;;;;;;17.10;15.23;;;;;;;;;;5072831;28;20456;-65
2022/04/30 10:44:57;;;;;;;16.13;14.17;;;;;;;;;;5072262;28;20984;-66
2022/04/30 10:47:23;;;;;;;17.37;15.77;;;;;;;;;;5072501;28;20410;-67
2022/04/30 10:49:49;;;;;;;17.03;15.20;;;;;;;;;;5072956;28;20404;-67
2022/04/30 10:52:24;;;;;;;15.53;13.90;;;;;;;;;;5072869;28;20403;-67
2022/04/30 10:54:50;;;;;;;14.90;13.50;;;;;;;;;;5072577;28;20394;-66
2022/04/30 10:57:16;;;;;;;13.83;12.53;;;;;;;;;;5072834;28;20397;-68
2022/04/30 10:59:42;;;;;;;14.70;13.10;;;;;;;;;;5072791;28;20413;-67
2022/04/30 11:02:12;;;;;;;15.43;13.30;;;;;;;;;;5072291;28;20498;-67
2022/04/30 11:04:41;;;;;;;16.07;14.17;;;;;;;;;;5075355;28;20402;-67
2022/04/30 11:07:08;;;;;;;15.67;14.23;;;;;;;;;;5076355;28;20925;-67
2022/04/30 11:09:41;;;;;;;16.93;15.20;;;;;;;;;;5076629;28;20420;-67
2022/04/30 11:12:07;;;;;;;14.90;13.63;;;;;;;;;;5076468;28;20467;-66
2022/04/30 11:14:33;;;;;;;16.77;15.13;;;;;;;;;;5074742;28;20433;-67
2022/04/30 11:16:59;;;;;;;16.20;14.80;;;;;;;;;;5075982;28;20423;-67
2022/04/30 11:19:25;;;;;;;18.43;16.50;;;;;;;;;;5076320;28;20412;-66
2022/04/30 11:21:52;;;;;;;17.23;15.27;;;;;;;;;;5076065;28;20415;-67
2022/04/30 11:24:24;;;;;;;16.57;15.07;;;;;;;;;;5075974;28;20443;-68
2022/04/30 11:26:53;;;;;;;17.63;15.80;;;;;;;;;;5076241;28;20419;-66
2022/04/30 11:29:19;;;;;;;18.13;14.73;;;;;;;;;;5076182;28;20851;-68
2022/04/30 11:31:45;;;;;;;20.70;16.03;;;;;;;;;;5074628;28;20500;-67
2022/04/30 11:34:18;;;;;;;16.70;15.10;;;;;;;;;;5075922;28;20405;-66
2022/04/30 11:36:45;;;;;;;16.70;15.20;;;;;;;;;;5075663;28;20978;-69
2022/04/30 11:39:12;;;;;;;17.17;15.53;;;;;;;;;;5075930;28;20467;-67
2022/04/30 11:41:45;;;;;;;16.20;14.57;;;;;;;;;;5075254;28;20414;-67
2022/04/30 11:44:14;;;;;;;18.93;17.20;;;;;;;;;;5075732;28;20500;-65
2022/04/30 11:46:41;;;;;;;15.27;13.67;;;;;;;;;;5075856;28;20503;-66
2022/04/30 11:49:10;;;;;;;18.63;15.90;;;;;;;;;;5075690;28;20898;-66
2022/04/30 11:51:37;;;;;;;17.37;15.57;;;;;;;;;;5075620;28;20416;-67
2022/04/30 11:54:03;;;;;;;16.50;14.80;;;;;;;;;;5075928;28;20499;-66
2022/04/30 11:56:30;;;;;;;20.23;14.53;;;;;;;;;;5075946;28;20412;-67
2022/04/30 11:58:56;;;;;;;16.17;14.63;;;;;;;;;;5075852;28;20896;-67
2022/04/30 12:01:23;;;;;;;17.20;15.50;;;;;;;;;;5075916;28;20416;-66
2022/04/30 12:03:56;;;;;;;16.07;13.27;;;;;;;;;;5075772;28;20498;-68
2022/04/30 12:06:26;;;;;;;15.23;13.57;;;;;;;;;;5075481;28;20416;-67
2022/04/30 12:08:52;;;;;;;14.30;12.80;;;;;;;;;;5075494;28;20970;-66
2022/04/30 12:11:18;;;;;;;14.47;13.27;;;;;;;;;;5075478;28;20409;-66
2022/04/30 12:13:44;;;;;;;14.57;13.07;;;;;;;;;;5075382;28;20522;-67
2022/04/30 12:16:10;;;;;;;15.50;14.00;;;;;;;;;;5074160;28;20880;-66
2022/04/30 12:26:55;;;;;;;14.70;12.47;;;;;;;;;;5075510;28;20797;-67
2022/04/30 12:29:22;;;;;;;16.13;14.63;;;;;;;;;;5075247;28;20470;-68
2022/04/30 12:31:51;;;;;;;14.90;13.60;;;;;;;;;;5073758;28;20502;-65
2022/04/30 12:34:20;;;;;;;14.80;13.30;;;;;;;;;;5075320;28;20503;-65
2022/04/30 12:36:53;;;;;;;14.93;12.47;;;;;;;;;;5075029;28;20552;-65
2022/04/30 12:39:19;;;;;;;15.17;13.67;;;;;;;;;;5074743;28;20494;-66
2022/04/30 12:41:45;;;;;;;16.50;14.80;;;;;;;;;;5074955;28;20403;-67
2022/04/30 12:44:11;;;;;;;16.17;14.50;;;;;;;;;;5074739;28;20473;-67
2022/04/30 12:46:41;;;;;;;16.10;14.47;;;;;;;;;;5074713;28;20497;-68
2022/04/30 12:49:07;;;;;;;16.40;14.30;;;;;;;;;;5074640;28;20502;-66
2022/04/30 12:51:33;;;;;;;14.73;13.30;;;;;;;;;;5074493;28;20439;-66
2022/04/30 12:53:59;;;;;;;14.80;13.40;;;;;;;;;;5074500;28;20410;-65
2022/04/30 12:56:27;;;;;;;16.00;14.40;;;;;;;;;;5074919;28;20413;-66
2022/04/30 12:58:56;;;;;;;14.80;13.17;;;;;;;;;;5074574;28;20424;-65
2022/04/30 13:01:22;;;;;;;16.97;15.20;;;;;;;;;;5074560;28;20407;-61
2022/04/30 13:03:48;;;;;;;14.27;12.87;;;;;;;;;;5074680;28;20515;-63
2022/04/30 13:06:14;;;;;;;23.80;14.60;;;;;;;;;;5074759;28;20407;-64
2022/04/30 13:14:10;;;;;;;14.83;13.33;;;;;;;;;;5074301;28;20443;-69
2022/04/30 13:16:36;;;;;;;15.53;12.20;;;;;;;;;;5074164;28;20771;-66
2022/04/30 13:19:02;;;;;;;13.00;11.90;;;;;;;;;;5074445;28;20418;-66
2022/04/30 13:21:29;;;;;;;13.93;12.43;;;;;;;;;;5074121;28;20398;-67
2022/04/30 13:23:54;;;;;;;12.10;10.97;;;;;;;;;;5074079;28;20553;-64
2022/04/30 13:26:21;;;;;;;13.87;12.13;;;;;;;;;;5074630;28;20438;-61
2022/04/30 13:28:47;;;;;;;12.43;10.37;;;;;;;;;;5077148;28;20408;-66
2022/04/30 13:31:13;;;;;;;13.17;11.87;;;;;;;;;;5074510;28;20421;-61
2022/04/30 13:33:39;;;;;;;14.50;12.67;;;;;;;;;;5074107;28;20773;-60
2022/04/30 13:36:05;;;;;;;13.13;11.83;;;;;;;;;;5074244;28;20415;-62
2022/04/30 13:38:31;;;;;;;13.07;11.87;;;;;;;;;;5073721;28;20402;-61
2022/04/30 13:41:01;;;;;;;14.77;13.37;;;;;;;;;;5073861;28;20924;-62
2022/04/30 13:43:27;;;;;;;14.03;12.20;;;;;;;;;;5073642;28;20511;-63
2022/04/30 13:45:53;;;;;;;13.13;11.80;;;;;;;;;;5073646;28;20882;-60
2022/04/30 13:48:19;;;;;;;14.77;13.03;;;;;;;;;;5073803;28;20405;-62
2022/04/30 13:50:45;;;;;;;13.63;12.23;;;;;;;;;;5073645;28;20409;-60
2022/04/30 13:53:12;;;;;;;16.40;13.30;;;;;;;;;;5073919;28;20413;-61
2022/04/30 13:55:38;;;;;;;13.23;12.00;;;;;;;;;;5072402;28;20476;-62
2022/04/30 13:58:04;;;;;;;15.00;13.33;;;;;;;;;;5073628;28;20422;-62
2022/04/30 14:00:30;;;;;;;14.83;13.07;;;;;;;;;;5073823;28;20455;-62
2022/04/30 14:02:56;;;;;;;17.83;13.53;;;;;;;;;;5073373;28;20991;-62
2022/04/30 14:05:22;;;;;;;14.17;12.77;;;;;;;;;;5073666;28;20407;-62
2022/04/30 14:07:48;;;;;;;15.60;14.00;;;;;;;;;;5073548;28;20457;-62
2022/04/30 14:10:15;;;;;;;16.97;14.40;;;;;;;;;;5073593;28;20404;-60
2022/04/30 14:12:41;;;;;;;15.23;13.83;;;;;;;;;;5073826;28;20494;-63
2022/04/30 14:15:09;;;;;;;15.47;13.80;;;;;;;;;;5073469;28;20423;-60
2022/04/30 14:20:20;;;;;;;12.97;11.67;;;;;;;;;;5073652;28;20397;-61
2022/04/30 14:22:46;;;;;;;12.63;11.43;;;;;;;;;;5073315;28;20470;-61
2022/04/30 14:25:13;;;;;;;11.40;10.53;;;;;;;;;;5073460;28;20452;-62
2022/04/30 14:27:40;;;;;;;13.43;12.03;;;;;;;;;;5072082;28;20850;-63
2022/04/30 14:30:07;;;;;;;12.10;11.10;;;;;;;;;;5073252;28;20849;-62
2022/04/30 14:32:34;;;;;;;11.93;10.83;;;;;;;;;;5071934;28;20526;-63
2022/04/30 14:35:00;;;;;;;9.57;8.87;;;;;;;;;;5073268;28;20402;-62
2022/04/30 14:37:29;;;;;;;10.57;9.53;;;;;;;;;;5073205;28;20817;-62
2022/04/30 14:39:55;;;;;;;11.93;9.43;;;;;;;;;;5076551;28;20807;-62
2022/04/30 14:42:22;;;;;;;15.47;10.10;;;;;;;;;;5077261;28;20460;-62
2022/04/30 14:44:48;;;;;;;11.43;10.33;;;;;;;;;;5077421;28;20531;-62
2022/04/30 14:47:14;;;;;;;11.87;10.77;;;;;;;;;;5077368;28;20406;-62
2022/04/30 14:49:42;;;;;;;11.47;10.50;;;;;;;;;;5077111;28;20417;-62
2022/04/30 14:52:09;;;;;;;11.93;10.97;;;;;;;;;;5077345;28;20405;-62
2022/04/30 14:54:35;;;;;;;10.53;9.70;;;;;;;;;;5077025;28;20413;-61
2022/04/30 14:57:01;;;;;;;12.27;11.37;;;;;;;;;;5077040;28;20393;-62
2022/04/30 14:59:27;;;;;;;10.83;9.83;;;;;;;;;;5076898;28;20401;-61
2022/04/30 15:01:53;;;;;;;12.00;10.83;;;;;;;;;;5076674;28;20409;-61
2022/04/30 15:04:19;;;;;;;12.80;10.17;;;;;;;;;;5076740;28;20472;-61
2022/04/30 15:06:45;;;;;;;13.23;11.93;;;;;;;;;;5076685;28;20470;-61
2022/04/30 15:09:11;;;;;;;18.17;15.20;;;;;;;;;;5076543;28;20811;-61
2022/04/30 15:11:37;;;;;;;18.30;16.50;;;;;;;;;;5076729;28;20408;-62